»·PEaware :: AMF1981 KPHX-KLAS

AMF1981 :: KPHX-KLAS

FLIGHT INFORMATION

Flight Status: Arrived
Operator: Ameriflight
More flights by this operator :: More flights under this callsign
Pilot: Nickolaus B. (17683)
Aircraft: BEECH AIRCRAFT BEECH AIRLINER
(B190)
More flights by this aircraft type
Origin: KPHX Phoenix Sky Harbor Intl
United States
Destination: KLAS McCarran Intl
United States
More flights between these airports :: More routes between these airports
Route: +PXR V105 DRK V562 LAS
File this flight plan on PilotEdge
Remarks:
Altitude:
(Current/Filed)
18,000ft
Speed:
(Current/Filed)
260kts
Departed: 09-May-18 03:20 PM
Arrived: 09-May-18 04:22 PM
Distance/Time
Traveled:
221nm/1:02
Distance/Time
To Go:
Arrived

Flight Plot

Page will automatically refresh every two minutes.

Flight plan parsing failed; only flown route is shown


Map Options




Map Legend


Flown Route
Filed Route
Departure Airport
Arrival Airport
Navaid (VOR, NDB)
Fix

Horizontal Profiles

Position Reports

Time Latitude Longitude Heading Altitude Ground
Speed
09-May-18 14:53 33.426352 -112.018233 90 1114ft 0kts
09-May-18 14:54 33.426352 -112.018233 90 1114ft 0kts
09-May-18 14:55 33.426352 -112.018233 90 1114ft 0kts
09-May-18 14:56 33.426352 -112.018233 90 1114ft 0kts
09-May-18 14:57 33.426352 -112.018233 90 1114ft 0kts
09-May-18 14:58 33.426352 -112.018233 90 1114ft 0kts
09-May-18 14:59 33.426352 -112.018233 90 1114ft 0kts
09-May-18 15:00 33.426352 -112.018233 90 1114ft 0kts
09-May-18 15:01 33.426352 -112.018233 90 1114ft 0kts
09-May-18 15:02 33.426352 -112.018233 90 1114ft 0kts
09-May-18 15:03 33.426352 -112.018233 90 1114ft 0kts
09-May-18 15:04 33.426352 -112.018233 90 1114ft 0kts
09-May-18 15:05 33.426352 -112.018233 90 1114ft 0kts
09-May-18 15:06 33.426352 -112.018233 90 1114ft 0kts
09-May-18 15:07 33.426352 -112.018233 90 1114ft 0kts
09-May-18 15:08 33.426352 -112.018233 90 1114ft 0kts
09-May-18 15:09 33.426352 -112.018233 90 1114ft 0kts
09-May-18 15:10 33.426352 -112.018233 90 1114ft 0kts
09-May-18 15:11 33.426352 -112.018233 90 1114ft 0kts
09-May-18 15:12 33.426368 -112.017691 74 1114ft 5kts
09-May-18 15:13 33.427738 -112.018804 267 1114ft 9kts
09-May-18 15:14 33.427753 -112.021901 268 1114ft 10kts
09-May-18 15:15 33.427754 -112.025314 271 1114ft 9kts
09-May-18 15:16 33.427893 -112.026831 324 1111ft 0kts
09-May-18 15:17 33.427893 -112.026831 324 1111ft 0kts
09-May-18 15:18 33.427902 -112.026838 324 1111ft 0kts
09-May-18 15:19 33.428864 -112.026831 80 1111ft 5kts
09-May-18 15:20 33.429322 -111.999338 84 1699ft 158kts
09-May-18 15:21 33.453162 -111.950681 56 4117ft 182kts
09-May-18 15:22 33.481995 -111.903763 31 6824ft 175kts
09-May-18 15:23 33.520709 -111.936744 296 8119ft 202kts
09-May-18 15:24 33.545581 -111.990324 295 10137ft 185kts
09-May-18 15:25 33.567810 -112.037524 295 12487ft 157kts
09-May-18 15:26 33.596211 -112.077603 326 14213ft 180kts
09-May-18 15:27 33.637713 -112.105783 327 15995ft 188kts
09-May-18 15:28 33.692111 -112.137898 330 16027ft 243kts
09-May-18 15:29 33.752761 -112.172104 331 16021ft 261kts
09-May-18 15:30 33.816656 -112.208732 329 16019ft 267kts
09-May-18 15:31 33.881999 -112.248975 329 16018ft 269kts
09-May-18 15:32 33.948434 -112.289958 329 16017ft 269kts
09-May-18 15:33 34.013139 -112.329949 329 16017ft 270kts
09-May-18 15:34 34.078969 -112.370704 329 16012ft 270kts
09-May-18 15:35 34.142198 -112.409913 329 16081ft 268kts
09-May-18 15:36 34.206621 -112.449920 329 16173ft 266kts
09-May-18 15:37 34.271463 -112.490303 329 16235ft 267kts
09-May-18 15:38 34.344829 -112.499943 358 16003ft 283kts
09-May-18 15:39 34.417559 -112.496831 358 15997ft 280kts
09-May-18 15:40 34.493279 -112.493725 358 15998ft 279kts
09-May-18 15:41 34.568232 -112.490660 358 15998ft 279kts
09-May-18 15:42 34.629058 -112.488169 358 15998ft 279kts
09-May-18 15:43 34.702667 -112.490070 327 15995ft 268kts
09-May-18 15:44 34.758982 -112.546576 315 15998ft 266kts
09-May-18 15:45 34.813307 -112.603951 315 15998ft 266kts
09-May-18 15:46 34.865234 -112.659011 315 16001ft 266kts
09-May-18 15:47 34.919637 -112.716647 315 16001ft 266kts
09-May-18 15:48 34.975188 -112.775695 315 16001ft 266kts
09-May-18 15:49 35.030650 -112.834766 315 16001ft 266kts
09-May-18 15:50 35.086124 -112.894020 315 16012ft 266kts
09-May-18 15:51 35.138848 -112.950401 315 16016ft 266kts
09-May-18 15:52 35.191502 -113.007739 311 16121ft 263kts
09-May-18 15:53 35.242900 -113.072107 311 16113ft 266kts
09-May-18 15:54 35.294221 -113.136467 311 16094ft 267kts
09-May-18 15:55 35.345801 -113.201274 311 16062ft 267kts
09-May-18 15:56 35.397628 -113.266518 311 16016ft 268kts
09-May-18 15:57 35.448792 -113.331051 311 15998ft 267kts
09-May-18 15:58 35.499817 -113.395536 311 15998ft 267kts
09-May-18 15:59 35.549320 -113.458219 311 15998ft 267kts
09-May-18 16:00 35.598390 -113.520469 311 15998ft 267kts
09-May-18 16:01 35.643007 -113.587629 303 15998ft 265kts
09-May-18 16:02 35.683114 -113.657500 302 16000ft 265kts
09-May-18 16:03 35.724263 -113.729286 302 15983ft 266kts
09-May-18 16:04 35.764773 -113.800098 302 15982ft 265kts
09-May-18 16:05 35.805991 -113.872297 302 15982ft 265kts
09-May-18 16:06 35.848007 -113.946052 302 15982ft 265kts
09-May-18 16:07 35.890022 -114.019963 302 15975ft 266kts
09-May-18 16:08 35.932050 -114.094054 302 15928ft 267kts
09-May-18 16:09 35.964687 -114.174033 272 15649ft 270kts
09-May-18 16:10 35.968542 -114.262958 271 14741ft 285kts
09-May-18 16:11 35.972328 -114.358150 271 13781ft 289kts
09-May-18 16:12 35.976201 -114.456568 271 12784ft 288kts
09-May-18 16:13 35.980039 -114.554882 271 11986ft 282kts
09-May-18 16:14 35.995730 -114.646714 281 11378ft 274kts
09-May-18 16:15 36.012418 -114.735305 281 10232ft 273kts
09-May-18 16:16 36.044490 -114.816571 300 8574ft 262kts
09-May-18 16:17 36.073583 -114.888463 262 6594ft 223kts
09-May-18 16:18 36.070458 -114.961918 276 4479ft 221kts
09-May-18 16:19 36.073822 -115.031918 266 2981ft 186kts
09-May-18 16:20 36.073985 -115.080045 265 2448ft 133kts
09-May-18 16:21 36.073663 -115.121516 266 2160ft 115kts
09-May-18 16:22 36.073774 -115.143305 284 2092ft 26kts
09-May-18 16:23 36.074647 -115.145762 297 2100ft 0kts
09-May-18 16:24 36.077295 -115.146571 354 2100ft 22kts
09-May-18 16:25 36.078260 -115.142964 88 2085ft 18kts
09-May-18 16:26 36.078272 -115.136122 90 2065ft 20kts
09-May-18 16:27 36.078283 -115.129791 89 2046ft 22kts
09-May-18 16:28 36.079416 -115.126405 1 2037ft 9kts
09-May-18 16:29 36.080701 -115.125574 83 2033ft 0kts
09-May-18 16:30 36.080701 -115.125574 83 2033ft 0kts
09-May-18 16:31 36.080701 -115.125574 83 2033ft 0kts
09-May-18 16:32 36.080701 -115.125574 83 2033ft 0kts

Navigation Log

Ident Type
Flight plan parsing failed, navigation log unavailable